sensor_id;sensor_type;location;lat;lon;timestamp;P1;durP1;ratioP1;P2;durP2;ratioP2
6346;SDS011;3206;42.666;23.600;2022-08-20T00:00:44;2.03;;;1.92;;
6346;SDS011;3206;42.666;23.600;2022-08-20T00:03:14;2.10;;;1.85;;
6346;SDS011;3206;42.666;23.600;2022-08-20T00:05:44;3.53;;;2.45;;
6346;SDS011;3206;42.666;23.600;2022-08-20T00:08:16;5.10;;;2.13;;
6346;SDS011;3206;42.666;23.600;2022-08-20T00:10:46;4.60;;;2.72;;
6346;SDS011;3206;42.666;23.600;2022-08-20T00:13:15;3.75;;;2.40;;
6346;SDS011;3206;42.666;23.600;2022-08-20T00:15:45;3.72;;;2.53;;
6346;SDS011;3206;42.666;23.600;2022-08-20T00:18:12;2.70;;;2.10;;
6346;SDS011;3206;42.666;23.600;2022-08-20T00:20:40;3.17;;;2.40;;
6346;SDS011;3206;42.666;23.600;2022-08-20T00:23:09;3.17;;;2.40;;
6346;SDS011;3206;42.666;23.600;2022-08-20T00:25:35;3.83;;;2.78;;
6346;SDS011;3206;42.666;23.600;2022-08-20T00:28:03;2.85;;;2.22;;
6346;SDS011;3206;42.666;23.600;2022-08-20T00:30:31;5.50;;;2.72;;
6346;SDS011;3206;42.666;23.600;2022-08-20T00:33:02;3.22;;;2.35;;
6346;SDS011;3206;42.666;23.600;2022-08-20T00:35:32;2.60;;;2.40;;
6346;SDS011;3206;42.666;23.600;2022-08-20T00:38:00;1.92;;;1.73;;
6346;SDS011;3206;42.666;23.600;2022-08-20T00:40:31;4.35;;;2.25;;
6346;SDS011;3206;42.666;23.600;2022-08-20T00:43:03;2.60;;;2.15;;
6346;SDS011;3206;42.666;23.600;2022-08-20T00:45:33;4.15;;;2.00;;
6346;SDS011;3206;42.666;23.600;2022-08-20T00:48:02;5.50;;;2.65;;
6346;SDS011;3206;42.666;23.600;2022-08-20T00:50:30;3.78;;;2.42;;
6346;SDS011;3206;42.666;23.600;2022-08-20T00:52:59;8.93;;;2.00;;
6346;SDS011;3206;42.666;23.600;2022-08-20T00:55:28;2.67;;;2.13;;
6346;SDS011;3206;42.666;23.600;2022-08-20T00:57:57;2.65;;;2.05;;
6346;SDS011;3206;42.666;23.600;2022-08-20T01:00:28;2.65;;;1.83;;
6346;SDS011;3206;42.666;23.600;2022-08-20T01:02:57;3.63;;;2.63;;
6346;SDS011;3206;42.666;23.600;2022-08-20T01:05:26;2.50;;;2.30;;
6346;SDS011;3206;42.666;23.600;2022-08-20T01:07:53;2.33;;;2.05;;
6346;SDS011;3206;42.666;23.600;2022-08-20T01:10:21;3.40;;;1.90;;
6346;SDS011;3206;42.666;23.600;2022-08-20T01:12:50;1.60;;;1.50;;
6346;SDS011;3206;42.666;23.600;2022-08-20T01:15:22;1.75;;;1.65;;
6346;SDS011;3206;42.666;23.600;2022-08-20T01:17:53;3.45;;;2.03;;
6346;SDS011;3206;42.666;23.600;2022-08-20T01:20:23;2.90;;;2.33;;
6346;SDS011;3206;42.666;23.600;2022-08-20T01:22:54;3.63;;;2.38;;
6346;SDS011;3206;42.666;23.600;2022-08-20T01:25:48;2.40;;;2.00;;
6346;SDS011;3206;42.666;23.600;2022-08-20T01:28:18;3.08;;;1.88;;
6346;SDS011;3206;42.666;23.600;2022-08-20T01:30:50;4.22;;;2.35;;
6346;SDS011;3206;42.666;23.600;2022-08-20T01:33:17;2.78;;;2.17;;
6346;SDS011;3206;42.666;23.600;2022-08-20T01:35:45;4.47;;;2.95;;
6346;SDS011;3206;42.666;23.600;2022-08-20T01:38:12;2.03;;;1.92;;
6346;SDS011;3206;42.666;23.600;2022-08-20T01:43:38;3.60;;;1.95;;
6346;SDS011;3206;42.666;23.600;2022-08-20T01:46:06;2.65;;;2.45;;
6346;SDS011;3206;42.666;23.600;2022-08-20T01:48:34;4.03;;;2.42;;
6346;SDS011;3206;42.666;23.600;2022-08-20T01:51:03;1.88;;;1.65;;
6346;SDS011;3206;42.666;23.600;2022-08-20T01:53:34;2.25;;;2.05;;
6346;SDS011;3206;42.666;23.600;2022-08-20T01:56:03;2.17;;;1.98;;
6346;SDS011;3206;42.666;23.600;2022-08-20T01:58:34;3.17;;;2.60;;
6346;SDS011;3206;42.666;23.600;2022-08-20T02:01:04;2.22;;;1.83;;
6346;SDS011;3206;42.666;23.600;2022-08-20T02:03:30;2.72;;;2.05;;
6346;SDS011;3206;42.666;23.600;2022-08-20T02:05:58;2.80;;;2.33;;
6346;SDS011;3206;42.666;23.600;2022-08-20T02:08:25;2.83;;;2.25;;
6346;SDS011;3206;42.666;23.600;2022-08-20T02:10:52;3.08;;;2.78;;
6346;SDS011;3206;42.666;23.600;2022-08-20T02:13:20;2.33;;;2.08;;
6346;SDS011;3206;42.666;23.600;2022-08-20T02:15:50;2.83;;;2.63;;
6346;SDS011;3206;42.666;23.600;2022-08-20T02:18:16;2.10;;;2.00;;
6346;SDS011;3206;42.666;23.600;2022-08-20T02:20:45;1.83;;;1.73;;
6346;SDS011;3206;42.666;23.600;2022-08-20T02:23:13;2.55;;;2.00;;
6346;SDS011;3206;42.666;23.600;2022-08-20T02:25:41;1.92;;;1.83;;
6346;SDS011;3206;42.666;23.600;2022-08-20T02:28:11;2.58;;;2.00;;
6346;SDS011;3206;42.666;23.600;2022-08-20T02:30:40;3.85;;;2.45;;
6346;SDS011;3206;42.666;23.600;2022-08-20T02:33:12;3.55;;;2.67;;
6346;SDS011;3206;42.666;23.600;2022-08-20T02:35:42;2.50;;;1.90;;
6346;SDS011;3206;42.666;23.600;2022-08-20T02:38:11;3.20;;;2.28;;
6346;SDS011;3206;42.666;23.600;2022-08-20T02:40:39;6.78;;;3.03;;
6346;SDS011;3206;42.666;23.600;2022-08-20T02:43:08;3.00;;;1.83;;
6346;SDS011;3206;42.666;23.600;2022-08-20T02:45:36;3.08;;;2.00;;
6346;SDS011;3206;42.666;23.600;2022-08-20T02:48:08;2.25;;;2.05;;
6346;SDS011;3206;42.666;23.600;2022-08-20T02:50:37;3.05;;;2.38;;
6346;SDS011;3206;42.666;23.600;2022-08-20T02:53:08;1.98;;;1.60;;
6346;SDS011;3206;42.666;23.600;2022-08-20T02:55:34;3.03;;;1.90;;
6346;SDS011;3206;42.666;23.600;2022-08-20T02:58:01;3.83;;;2.05;;
6346;SDS011;3206;42.666;23.600;2022-08-20T03:00:28;2.70;;;2.33;;
6346;SDS011;3206;42.666;23.600;2022-08-20T03:02:56;2.35;;;1.88;;
6346;SDS011;3206;42.666;23.600;2022-08-20T03:05:23;7.53;;;2.65;;
6346;SDS011;3206;42.666;23.600;2022-08-20T03:07:51;2.45;;;2.25;;
6346;SDS011;3206;42.666;23.600;2022-08-20T03:10:20;3.00;;;2.10;;
6346;SDS011;3206;42.666;23.600;2022-08-20T03:12:47;5.00;;;2.28;;
6346;SDS011;3206;42.666;23.600;2022-08-20T03:15:14;5.55;;;2.47;;
6346;SDS011;3206;42.666;23.600;2022-08-20T03:17:41;5.97;;;2.15;;
6346;SDS011;3206;42.666;23.600;2022-08-20T03:20:08;2.20;;;2.10;;
6346;SDS011;3206;42.666;23.600;2022-08-20T03:22:36;4.60;;;2.67;;
6346;SDS011;3206;42.666;23.600;2022-08-20T03:25:05;3.10;;;2.75;;
6346;SDS011;3206;42.666;23.600;2022-08-20T03:27:32;1.70;;;1.60;;
6346;SDS011;3206;42.666;23.600;2022-08-20T03:29:59;4.47;;;1.75;;
6346;SDS011;3206;42.666;23.600;2022-08-20T03:32:26;2.95;;;2.67;;
6346;SDS011;3206;42.666;23.600;2022-08-20T03:34:52;3.28;;;2.38;;
6346;SDS011;3206;42.666;23.600;2022-08-20T03:37:19;4.25;;;3.00;;
6346;SDS011;3206;42.666;23.600;2022-08-20T03:39:46;3.38;;;1.92;;
6346;SDS011;3206;42.666;23.600;2022-08-20T03:42:14;2.10;;;1.83;;
6346;SDS011;3206;42.666;23.600;2022-08-20T03:44:40;5.38;;;2.45;;
6346;SDS011;3206;42.666;23.600;2022-08-20T03:47:07;2.67;;;2.22;;
6346;SDS011;3206;42.666;23.600;2022-08-20T03:49:34;2.42;;;2.15;;
6346;SDS011;3206;42.666;23.600;2022-08-20T03:52:01;4.25;;;1.95;;
6346;SDS011;3206;42.666;23.600;2022-08-20T03:54:28;4.25;;;2.40;;
6346;SDS011;3206;42.666;23.600;2022-08-20T03:56:55;3.40;;;2.50;;
6346;SDS011;3206;42.666;23.600;2022-08-20T03:59:23;2.53;;;2.33;;
6346;SDS011;3206;42.666;23.600;2022-08-20T04:01:50;2.13;;;1.98;;
6346;SDS011;3206;42.666;23.600;2022-08-20T04:04:17;4.20;;;2.28;;
6346;SDS011;3206;42.666;23.600;2022-08-20T04:06:44;3.42;;;2.45;;
6346;SDS011;3206;42.666;23.600;2022-08-20T04:09:11;2.72;;;2.45;;
6346;SDS011;3206;42.666;23.600;2022-08-20T04:11:38;2.60;;;2.35;;
6346;SDS011;3206;42.666;23.600;2022-08-20T04:14:05;2.45;;;2.08;;
6346;SDS011;3206;42.666;23.600;2022-08-20T04:16:33;3.97;;;2.35;;
6346;SDS011;3206;42.666;23.600;2022-08-20T04:19:00;2.25;;;2.05;;
6346;SDS011;3206;42.666;23.600;2022-08-20T04:21:27;1.80;;;1.70;;
6346;SDS011;3206;42.666;23.600;2022-08-20T04:23:54;5.22;;;2.40;;
6346;SDS011;3206;42.666;23.600;2022-08-20T04:26:21;2.45;;;1.98;;
6346;SDS011;3206;42.666;23.600;2022-08-20T04:28:47;3.03;;;2.72;;
6346;SDS011;3206;42.666;23.600;2022-08-20T04:31:19;3.35;;;2.90;;
6346;SDS011;3206;42.666;23.600;2022-08-20T04:33:50;4.32;;;2.97;;
6346;SDS011;3206;42.666;23.600;2022-08-20T04:36:16;3.25;;;2.58;;
6346;SDS011;3206;42.666;23.600;2022-08-20T04:38:50;4.15;;;2.92;;
6346;SDS011;3206;42.666;23.600;2022-08-20T04:41:17;3.95;;;2.70;;
6346;SDS011;3206;42.666;23.600;2022-08-20T04:43:43;3.22;;;2.40;;
6346;SDS011;3206;42.666;23.600;2022-08-20T04:46:10;3.17;;;2.88;;
6346;SDS011;3206;42.666;23.600;2022-08-20T04:48:38;2.95;;;2.33;;
6346;SDS011;3206;42.666;23.600;2022-08-20T04:51:07;2.90;;;2.28;;
6346;SDS011;3206;42.666;23.600;2022-08-20T04:53:34;3.65;;;2.10;;
6346;SDS011;3206;42.666;23.600;2022-08-20T04:56:01;2.55;;;2.35;;
6346;SDS011;3206;42.666;23.600;2022-08-20T04:58:29;5.70;;;3.50;;
6346;SDS011;3206;42.666;23.600;2022-08-20T05:00:59;3.90;;;3.50;;
6346;SDS011;3206;42.666;23.600;2022-08-20T05:03:28;3.42;;;1.88;;
6346;SDS011;3206;42.666;23.600;2022-08-20T05:05:56;3.58;;;2.78;;
6346;SDS011;3206;42.666;23.600;2022-08-20T05:08:24;2.72;;;2.50;;
6346;SDS011;3206;42.666;23.600;2022-08-20T05:10:52;2.63;;;2.40;;
6346;SDS011;3206;42.666;23.600;2022-08-20T05:13:19;4.30;;;3.10;;
6346;SDS011;3206;42.666;23.600;2022-08-20T05:15:46;2.72;;;2.30;;
6346;SDS011;3206;42.666;23.600;2022-08-20T05:18:15;5.32;;;3.17;;
6346;SDS011;3206;42.666;23.600;2022-08-20T05:20:44;3.38;;;3.08;;
6346;SDS011;3206;42.666;23.600;2022-08-20T05:23:13;4.43;;;2.53;;
6346;SDS011;3206;42.666;23.600;2022-08-20T05:25:43;4.05;;;3.45;;
6346;SDS011;3206;42.666;23.600;2022-08-20T05:28:12;7.00;;;3.83;;
6346;SDS011;3206;42.666;23.600;2022-08-20T05:30:43;4.40;;;3.40;;
6346;SDS011;3206;42.666;23.600;2022-08-20T05:33:12;4.22;;;3.00;;
6346;SDS011;3206;42.666;23.600;2022-08-20T05:35:42;2.90;;;2.60;;
6346;SDS011;3206;42.666;23.600;2022-08-20T05:38:10;4.72;;;3.28;;
6346;SDS011;3206;42.666;23.600;2022-08-20T05:40:38;3.65;;;2.40;;
6346;SDS011;3206;42.666;23.600;2022-08-20T05:43:07;4.30;;;2.80;;
6346;SDS011;3206;42.666;23.600;2022-08-20T05:45:35;3.20;;;2.85;;
6346;SDS011;3206;42.666;23.600;2022-08-20T05:48:03;4.18;;;2.58;;
6346;SDS011;3206;42.666;23.600;2022-08-20T05:50:31;3.25;;;2.92;;
6346;SDS011;3206;42.666;23.600;2022-08-20T05:52:58;4.10;;;2.38;;
6346;SDS011;3206;42.666;23.600;2022-08-20T05:55:26;4.90;;;2.72;;
6346;SDS011;3206;42.666;23.600;2022-08-20T05:57:55;5.03;;;2.90;;
6346;SDS011;3206;42.666;23.600;2022-08-20T06:00:24;4.85;;;2.92;;
6346;SDS011;3206;42.666;23.600;2022-08-20T06:02:51;3.67;;;2.45;;
6346;SDS011;3206;42.666;23.600;2022-08-20T06:05:35;4.03;;;2.92;;
6346;SDS011;3206;42.666;23.600;2022-08-20T06:08:03;3.72;;;2.45;;
6346;SDS011;3206;42.666;23.600;2022-08-20T06:10:30;4.88;;;2.90;;
6346;SDS011;3206;42.666;23.600;2022-08-20T06:12:57;4.68;;;3.08;;
6346;SDS011;3206;42.666;23.600;2022-08-20T06:15:25;5.28;;;3.38;;
6346;SDS011;3206;42.666;23.600;2022-08-20T06:17:52;4.82;;;2.95;;
6346;SDS011;3206;42.666;23.600;2022-08-20T06:20:18;4.68;;;3.08;;
6346;SDS011;3206;42.666;23.600;2022-08-20T06:22:45;3.92;;;2.75;;
6346;SDS011;3206;42.666;23.600;2022-08-20T06:25:12;3.58;;;3.00;;
6346;SDS011;3206;42.666;23.600;2022-08-20T06:27:39;17.23;;;2.85;;
6346;SDS011;3206;42.666;23.600;2022-08-20T06:30:07;5.70;;;3.45;;
6346;SDS011;3206;42.666;23.600;2022-08-20T06:32:37;5.63;;;3.47;;
6346;SDS011;3206;42.666;23.600;2022-08-20T06:35:06;7.18;;;3.72;;
6346;SDS011;3206;42.666;23.600;2022-08-20T06:37:35;3.08;;;2.78;;
6346;SDS011;3206;42.666;23.600;2022-08-20T06:40:06;5.20;;;3.33;;
6346;SDS011;3206;42.666;23.600;2022-08-20T06:42:34;4.18;;;3.60;;
6346;SDS011;3206;42.666;23.600;2022-08-20T06:45:08;6.65;;;3.85;;
6346;SDS011;3206;42.666;23.600;2022-08-20T06:47:39;5.43;;;3.30;;
6346;SDS011;3206;42.666;23.600;2022-08-20T06:50:07;4.88;;;3.60;;
6346;SDS011;3206;42.666;23.600;2022-08-20T06:52:34;4.38;;;2.88;;
6346;SDS011;3206;42.666;23.600;2022-08-20T06:55:01;4.75;;;3.13;;
6346;SDS011;3206;42.666;23.600;2022-08-20T06:57:29;8.68;;;3.10;;
6346;SDS011;3206;42.666;23.600;2022-08-20T06:59:55;4.72;;;3.63;;
6346;SDS011;3206;42.666;23.600;2022-08-20T07:02:22;3.92;;;2.67;;
6346;SDS011;3206;42.666;23.600;2022-08-20T07:04:50;3.13;;;2.35;;
6346;SDS011;3206;42.666;23.600;2022-08-20T07:07:18;3.83;;;2.30;;
6346;SDS011;3206;42.666;23.600;2022-08-20T07:09:45;3.15;;;2.42;;
6346;SDS011;3206;42.666;23.600;2022-08-20T07:12:12;4.20;;;2.65;;
6346;SDS011;3206;42.666;23.600;2022-08-20T07:14:38;5.93;;;3.45;;
6346;SDS011;3206;42.666;23.600;2022-08-20T07:17:05;3.75;;;3.08;;
6346;SDS011;3206;42.666;23.600;2022-08-20T07:19:32;8.38;;;2.90;;
6346;SDS011;3206;42.666;23.600;2022-08-20T07:22:00;6.68;;;3.85;;
6346;SDS011;3206;42.666;23.600;2022-08-20T07:24:26;4.53;;;2.83;;
6346;SDS011;3206;42.666;23.600;2022-08-20T07:26:53;5.88;;;3.58;;
6346;SDS011;3206;42.666;23.600;2022-08-20T07:29:20;3.42;;;2.90;;
6346;SDS011;3206;42.666;23.600;2022-08-20T07:34:04;4.22;;;2.67;;
6346;SDS011;3206;42.666;23.600;2022-08-20T07:36:30;4.35;;;3.05;;
6346;SDS011;3206;42.666;23.600;2022-08-20T07:38:57;2.80;;;2.55;;
6346;SDS011;3206;42.666;23.600;2022-08-20T07:41:26;3.67;;;2.92;;
6346;SDS011;3206;42.666;23.600;2022-08-20T07:43:52;3.97;;;3.15;;
6346;SDS011;3206;42.666;23.600;2022-08-20T07:46:21;3.83;;;2.50;;
6346;SDS011;3206;42.666;23.600;2022-08-20T07:48:49;3.20;;;2.90;;
6346;SDS011;3206;42.666;23.600;2022-08-20T07:51:17;3.78;;;2.70;;
6346;SDS011;3206;42.666;23.600;2022-08-20T07:53:46;3.30;;;2.88;;
6346;SDS011;3206;42.666;23.600;2022-08-20T07:56:14;4.75;;;3.13;;
6346;SDS011;3206;42.666;23.600;2022-08-20T07:58:44;5.80;;;2.92;;
6346;SDS011;3206;42.666;23.600;2022-08-20T08:01:14;3.78;;;2.80;;
6346;SDS011;3206;42.666;23.600;2022-08-20T08:03:41;3.60;;;2.90;;
6346;SDS011;3206;42.666;23.600;2022-08-20T08:06:07;3.08;;;2.83;;
6346;SDS011;3206;42.666;23.600;2022-08-20T08:08:36;4.30;;;2.95;;
6346;SDS011;3206;42.666;23.600;2022-08-20T08:11:05;4.53;;;3.22;;
6346;SDS011;3206;42.666;23.600;2022-08-20T08:13:33;4.68;;;3.47;;
6346;SDS011;3206;42.666;23.600;2022-08-20T08:16:03;5.72;;;2.25;;
6346;SDS011;3206;42.666;23.600;2022-08-20T08:18:33;3.60;;;2.80;;
6346;SDS011;3206;42.666;23.600;2022-08-20T08:21:03;4.75;;;3.15;;
6346;SDS011;3206;42.666;23.600;2022-08-20T08:23:31;3.65;;;2.78;;
6346;SDS011;3206;42.666;23.600;2022-08-20T08:26:00;8.00;;;3.50;;
6346;SDS011;3206;42.666;23.600;2022-08-20T08:28:27;5.63;;;3.10;;
6346;SDS011;3206;42.666;23.600;2022-08-20T08:30:54;5.57;;;2.95;;
6346;SDS011;3206;42.666;23.600;2022-08-20T08:33:22;3.80;;;2.63;;
6346;SDS011;3206;42.666;23.600;2022-08-20T08:35:53;4.57;;;3.03;;
6346;SDS011;3206;42.666;23.600;2022-08-20T08:38:21;5.60;;;3.50;;
6346;SDS011;3206;42.666;23.600;2022-08-20T08:40:48;4.07;;;3.20;;
6346;SDS011;3206;42.666;23.600;2022-08-20T08:43:19;4.03;;;2.95;;
6346;SDS011;3206;42.666;23.600;2022-08-20T08:45:51;4.25;;;2.85;;
6346;SDS011;3206;42.666;23.600;2022-08-20T08:48:28;3.30;;;2.50;;
6346;SDS011;3206;42.666;23.600;2022-08-20T08:50:57;3.80;;;2.75;;
6346;SDS011;3206;42.666;23.600;2022-08-20T08:53:26;3.70;;;3.33;;
6346;SDS011;3206;42.666;23.600;2022-08-20T08:55:57;4.47;;;3.42;;
6346;SDS011;3206;42.666;23.600;2022-08-20T08:58:26;4.35;;;2.70;;
6346;SDS011;3206;42.666;23.600;2022-08-20T09:00:53;3.90;;;2.78;;
6346;SDS011;3206;42.666;23.600;2022-08-20T09:03:22;4.43;;;3.08;;
6346;SDS011;3206;42.666;23.600;2022-08-20T09:05:52;6.03;;;3.67;;
6346;SDS011;3206;42.666;23.600;2022-08-20T09:08:23;5.72;;;3.42;;
6346;SDS011;3206;42.666;23.600;2022-08-20T09:10:51;4.40;;;3.00;;
6346;SDS011;3206;42.666;23.600;2022-08-20T09:13:18;4.95;;;3.60;;
6346;SDS011;3206;42.666;23.600;2022-08-20T09:15:46;3.78;;;3.20;;
6346;SDS011;3206;42.666;23.600;2022-08-20T09:18:13;4.55;;;3.00;;
6346;SDS011;3206;42.666;23.600;2022-08-20T09:20:40;3.22;;;2.92;;
6346;SDS011;3206;42.666;23.600;2022-08-20T09:23:06;6.57;;;3.47;;
6346;SDS011;3206;42.666;23.600;2022-08-20T09:25:33;3.22;;;2.65;;
6346;SDS011;3206;42.666;23.600;2022-08-20T09:27:59;3.85;;;2.85;;
6346;SDS011;3206;42.666;23.600;2022-08-20T09:30:26;7.00;;;3.42;;
6346;SDS011;3206;42.666;23.600;2022-08-20T09:32:56;4.70;;;3.17;;
6346;SDS011;3206;42.666;23.600;2022-08-20T09:35:24;6.00;;;3.75;;
6346;SDS011;3206;42.666;23.600;2022-08-20T09:37:50;3.75;;;2.85;;
6346;SDS011;3206;42.666;23.600;2022-08-20T09:40:17;6.75;;;3.60;;
6346;SDS011;3206;42.666;23.600;2022-08-20T09:42:45;4.28;;;3.08;;
6346;SDS011;3206;42.666;23.600;2022-08-20T09:45:12;5.00;;;3.53;;
6346;SDS011;3206;42.666;23.600;2022-08-20T09:47:39;5.25;;;3.67;;
6346;SDS011;3206;42.666;23.600;2022-08-20T09:50:08;4.50;;;2.95;;
6346;SDS011;3206;42.666;23.600;2022-08-20T09:52:36;5.38;;;3.53;;
6346;SDS011;3206;42.666;23.600;2022-08-20T09:55:07;6.38;;;3.90;;
6346;SDS011;3206;42.666;23.600;2022-08-20T09:57:41;5.32;;;3.95;;
6346;SDS011;3206;42.666;23.600;2022-08-20T10:00:08;6.88;;;3.92;;
6346;SDS011;3206;42.666;23.600;2022-08-20T10:02:36;6.57;;;3.60;;
6346;SDS011;3206;42.666;23.600;2022-08-20T10:05:03;8.18;;;3.95;;
6346;SDS011;3206;42.666;23.600;2022-08-20T10:07:32;6.85;;;3.42;;
6346;SDS011;3206;42.666;23.600;2022-08-20T10:09:59;9.10;;;4.45;;
6346;SDS011;3206;42.666;23.600;2022-08-20T10:12:26;11.98;;;4.80;;
6346;SDS011;3206;42.666;23.600;2022-08-20T10:14:53;5.10;;;3.10;;
6346;SDS011;3206;42.666;23.600;2022-08-20T10:17:20;7.85;;;3.85;;
6346;SDS011;3206;42.666;23.600;2022-08-20T10:19:47;6.63;;;3.42;;
6346;SDS011;3206;42.666;23.600;2022-08-20T10:22:13;7.50;;;3.35;;
6346;SDS011;3206;42.666;23.600;2022-08-20T10:24:41;5.32;;;3.22;;
6346;SDS011;3206;42.666;23.600;2022-08-20T10:27:08;6.43;;;3.72;;
6346;SDS011;3206;42.666;23.600;2022-08-20T10:29:35;6.18;;;3.72;;
6346;SDS011;3206;42.666;23.600;2022-08-20T10:32:08;4.97;;;3.35;;
6346;SDS011;3206;42.666;23.600;2022-08-20T10:34:36;6.35;;;3.70;;
6346;SDS011;3206;42.666;23.600;2022-08-20T10:37:04;5.72;;;3.65;;
6346;SDS011;3206;42.666;23.600;2022-08-20T10:39:30;8.02;;;4.03;;
6346;SDS011;3206;42.666;23.600;2022-08-20T10:41:58;7.90;;;4.05;;
6346;SDS011;3206;42.666;23.600;2022-08-20T10:44:25;10.85;;;4.40;;
6346;SDS011;3206;42.666;23.600;2022-08-20T10:46:52;4.80;;;3.30;;
6346;SDS011;3206;42.666;23.600;2022-08-20T10:49:19;8.65;;;4.15;;
6346;SDS011;3206;42.666;23.600;2022-08-20T10:51:45;7.72;;;3.50;;
6346;SDS011;3206;42.666;23.600;2022-08-20T10:54:12;5.57;;;3.50;;
6346;SDS011;3206;42.666;23.600;2022-08-20T10:56:39;12.00;;;3.75;;
6346;SDS011;3206;42.666;23.600;2022-08-20T10:59:07;6.15;;;3.75;;
6346;SDS011;3206;42.666;23.600;2022-08-20T11:01:34;6.00;;;3.63;;
6346;SDS011;3206;42.666;23.600;2022-08-20T11:04:01;6.72;;;4.13;;
6346;SDS011;3206;42.666;23.600;2022-08-20T11:06:28;7.97;;;3.80;;
6346;SDS011;3206;42.666;23.600;2022-08-20T11:08:55;6.25;;;3.25;;
6346;SDS011;3206;42.666;23.600;2022-08-20T11:11:22;11.90;;;4.47;;
6346;SDS011;3206;42.666;23.600;2022-08-20T11:13:48;4.50;;;3.15;;
6346;SDS011;3206;42.666;23.600;2022-08-20T11:16:16;6.80;;;3.63;;
6346;SDS011;3206;42.666;23.600;2022-08-20T11:18:43;3.95;;;3.25;;
6346;SDS011;3206;42.666;23.600;2022-08-20T11:21:10;4.95;;;3.13;;
6346;SDS011;3206;42.666;23.600;2022-08-20T11:23:36;4.65;;;3.22;;
6346;SDS011;3206;42.666;23.600;2022-08-20T11:26:03;5.47;;;3.25;;
6346;SDS011;3206;42.666;23.600;2022-08-20T11:28:30;4.60;;;3.08;;
6346;SDS011;3206;42.666;23.600;2022-08-20T11:30:57;7.07;;;3.38;;
6346;SDS011;3206;42.666;23.600;2022-08-20T11:33:25;9.88;;;4.38;;
6346;SDS011;3206;42.666;23.600;2022-08-20T11:35:52;7.97;;;4.10;;
6346;SDS011;3206;42.666;23.600;2022-08-20T11:38:19;14.25;;;5.00;;
6346;SDS011;3206;42.666;23.600;2022-08-20T11:40:45;5.82;;;3.22;;
6346;SDS011;3206;42.666;23.600;2022-08-20T11:43:12;8.13;;;3.95;;
6346;SDS011;3206;42.666;23.600;2022-08-20T11:45:39;4.68;;;3.10;;
6346;SDS011;3206;42.666;23.600;2022-08-20T11:48:06;6.07;;;3.42;;
6346;SDS011;3206;42.666;23.600;2022-08-20T11:50:35;6.45;;;3.60;;
6346;SDS011;3206;42.666;23.600;2022-08-20T11:53:01;5.68;;;3.70;;
6346;SDS011;3206;42.666;23.600;2022-08-20T11:55:28;5.80;;;3.60;;
6346;SDS011;3206;42.666;23.600;2022-08-20T11:57:55;6.18;;;4.03;;
6346;SDS011;3206;42.666;23.600;2022-08-20T12:00:22;8.68;;;4.53;;
6346;SDS011;3206;42.666;23.600;2022-08-20T12:02:49;6.07;;;3.65;;
6346;SDS011;3206;42.666;23.600;2022-08-20T12:05:16;7.30;;;4.15;;
6346;SDS011;3206;42.666;23.600;2022-08-20T12:07:46;6.78;;;3.75;;
6346;SDS011;3206;42.666;23.600;2022-08-20T12:10:13;5.00;;;3.67;;
6346;SDS011;3206;42.666;23.600;2022-08-20T12:12:40;3.63;;;2.97;;
6346;SDS011;3206;42.666;23.600;2022-08-20T12:15:08;6.28;;;3.65;;
6346;SDS011;3206;42.666;23.600;2022-08-20T12:17:35;5.00;;;3.55;;
6346;SDS011;3206;42.666;23.600;2022-08-20T12:20:04;6.15;;;3.67;;
6346;SDS011;3206;42.666;23.600;2022-08-20T12:22:33;5.72;;;3.45;;
6346;SDS011;3206;42.666;23.600;2022-08-20T12:25:01;4.18;;;3.47;;
6346;SDS011;3206;42.666;23.600;2022-08-20T12:27:30;8.70;;;4.57;;
6346;SDS011;3206;42.666;23.600;2022-08-20T12:29:58;5.18;;;3.10;;
6346;SDS011;3206;42.666;23.600;2022-08-20T12:32:28;5.15;;;3.67;;
6346;SDS011;3206;42.666;23.600;2022-08-20T12:34:56;6.18;;;4.07;;
6346;SDS011;3206;42.666;23.600;2022-08-20T12:37:24;4.40;;;3.38;;
6346;SDS011;3206;42.666;23.600;2022-08-20T12:39:53;5.72;;;3.63;;
6346;SDS011;3206;42.666;23.600;2022-08-20T12:42:22;4.60;;;3.30;;
6346;SDS011;3206;42.666;23.600;2022-08-20T12:44:49;3.83;;;3.13;;
6346;SDS011;3206;42.666;23.600;2022-08-20T12:47:16;4.75;;;3.60;;
6346;SDS011;3206;42.666;23.600;2022-08-20T12:49:45;4.40;;;3.58;;
6346;SDS011;3206;42.666;23.600;2022-08-20T12:52:14;9.27;;;4.35;;
6346;SDS011;3206;42.666;23.600;2022-08-20T12:54:42;6.45;;;3.67;;
6346;SDS011;3206;42.666;23.600;2022-08-20T12:57:12;5.80;;;3.58;;
6346;SDS011;3206;42.666;23.600;2022-08-20T12:59:41;8.10;;;4.95;;
6346;SDS011;3206;42.666;23.600;2022-08-20T13:02:08;5.97;;;3.58;;
6346;SDS011;3206;42.666;23.600;2022-08-20T13:04:34;6.93;;;4.40;;
6346;SDS011;3206;42.666;23.600;2022-08-20T13:07:01;6.20;;;3.72;;
6346;SDS011;3206;42.666;23.600;2022-08-20T13:09:28;7.10;;;3.50;;
6346;SDS011;3206;42.666;23.600;2022-08-20T13:11:55;6.55;;;3.45;;
6346;SDS011;3206;42.666;23.600;2022-08-20T13:14:22;5.38;;;3.15;;
6346;SDS011;3206;42.666;23.600;2022-08-20T13:16:54;6.22;;;3.53;;
6346;SDS011;3206;42.666;23.600;2022-08-20T13:19:22;5.93;;;3.92;;
6346;SDS011;3206;42.666;23.600;2022-08-20T13:21:49;5.65;;;3.50;;
6346;SDS011;3206;42.666;23.600;2022-08-20T13:24:15;5.70;;;3.33;;
6346;SDS011;3206;42.666;23.600;2022-08-20T13:26:42;4.43;;;3.38;;
6346;SDS011;3206;42.666;23.600;2022-08-20T13:29:09;5.72;;;4.05;;
6346;SDS011;3206;42.666;23.600;2022-08-20T13:31:36;6.00;;;3.83;;
6346;SDS011;3206;42.666;23.600;2022-08-20T13:34:04;7.55;;;4.35;;
6346;SDS011;3206;42.666;23.600;2022-08-20T13:36:30;5.75;;;4.07;;
6346;SDS011;3206;42.666;23.600;2022-08-20T13:38:58;6.90;;;4.47;;
6346;SDS011;3206;42.666;23.600;2022-08-20T13:41:25;7.75;;;3.50;;
6346;SDS011;3206;42.666;23.600;2022-08-20T13:43:52;9.65;;;3.88;;
6346;SDS011;3206;42.666;23.600;2022-08-20T13:46:18;5.28;;;3.35;;
6346;SDS011;3206;42.666;23.600;2022-08-20T13:48:45;6.65;;;3.42;;
6346;SDS011;3206;42.666;23.600;2022-08-20T13:51:13;5.95;;;3.83;;
6346;SDS011;3206;42.666;23.600;2022-08-20T13:53:40;6.25;;;4.53;;
6346;SDS011;3206;42.666;23.600;2022-08-20T13:56:06;9.23;;;4.65;;
6346;SDS011;3206;42.666;23.600;2022-08-20T13:58:33;7.18;;;4.90;;
6346;SDS011;3206;42.666;23.600;2022-08-20T14:01:00;6.65;;;4.95;;
6346;SDS011;3206;42.666;23.600;2022-08-20T14:03:26;5.43;;;3.97;;
6346;SDS011;3206;42.666;23.600;2022-08-20T14:05:53;6.65;;;3.45;;
6346;SDS011;3206;42.666;23.600;2022-08-20T14:08:21;7.57;;;3.83;;
6346;SDS011;3206;42.666;23.600;2022-08-20T14:10:49;4.47;;;2.75;;
6346;SDS011;3206;42.666;23.600;2022-08-20T14:13:16;3.50;;;1.80;;
6346;SDS011;3206;42.666;23.600;2022-08-20T14:15:44;2.13;;;1.92;;
6346;SDS011;3206;42.666;23.600;2022-08-20T14:18:11;3.58;;;3.03;;
6346;SDS011;3206;42.666;23.600;2022-08-20T14:20:39;7.97;;;3.25;;
6346;SDS011;3206;42.666;23.600;2022-08-20T14:23:08;4.63;;;3.35;;
6346;SDS011;3206;42.666;23.600;2022-08-20T14:25:36;6.95;;;3.65;;
6346;SDS011;3206;42.666;23.600;2022-08-20T14:28:10;4.18;;;3.33;;
6346;SDS011;3206;42.666;23.600;2022-08-20T14:30:38;3.85;;;3.55;;
6346;SDS011;3206;42.666;23.600;2022-08-20T14:33:05;5.35;;;3.92;;
6346;SDS011;3206;42.666;23.600;2022-08-20T14:35:32;4.05;;;3.20;;
6346;SDS011;3206;42.666;23.600;2022-08-20T14:37:58;7.00;;;3.80;;
6346;SDS011;3206;42.666;23.600;2022-08-20T14:40:25;4.20;;;2.60;;
6346;SDS011;3206;42.666;23.600;2022-08-20T14:42:54;2.83;;;2.38;;
6346;SDS011;3206;42.666;23.600;2022-08-20T14:45:21;8.93;;;4.95;;
6346;SDS011;3206;42.666;23.600;2022-08-20T14:47:48;5.70;;;3.75;;
6346;SDS011;3206;42.666;23.600;2022-08-20T14:50:22;4.38;;;2.33;;
6346;SDS011;3206;42.666;23.600;2022-08-20T14:52:50;3.67;;;2.88;;
6346;SDS011;3206;42.666;23.600;2022-08-20T14:55:18;2.95;;;2.05;;
6346;SDS011;3206;42.666;23.600;2022-08-20T14:57:47;4.38;;;3.10;;
6346;SDS011;3206;42.666;23.600;2022-08-20T15:00:16;2.05;;;1.88;;
6346;SDS011;3206;42.666;23.600;2022-08-20T15:02:44;6.53;;;2.67;;
6346;SDS011;3206;42.666;23.600;2022-08-20T15:05:11;8.80;;;1.92;;
6346;SDS011;3206;42.666;23.600;2022-08-20T15:07:39;5.10;;;2.85;;
6346;SDS011;3206;42.666;23.600;2022-08-20T15:10:08;1.58;;;1.30;;